createdAt,value
2023-02-17T00:01:49.191Z,67.90
2023-02-17T00:04:36.164Z,66.70
2023-02-17T00:07:23.960Z,67.20
2023-02-17T00:10:10.707Z,68.20
2023-02-17T00:12:57.405Z,68.30
2023-02-17T00:15:43.995Z,68.90
2023-02-17T00:18:30.956Z,68.40
2023-02-17T00:21:20.405Z,66.30
2023-02-17T00:24:07.007Z,68.40
2023-02-17T00:26:53.872Z,69.20
2023-02-17T00:29:40.474Z,64.80
2023-02-17T00:32:27.287Z,67.90
2023-02-17T00:35:14.084Z,71.70
2023-02-17T00:38:00.636Z,68.40
2023-02-17T00:40:47.464Z,68.70
2023-02-17T00:43:34.702Z,69.10
2023-02-17T00:46:22.203Z,66.70
2023-02-17T00:49:14.306Z,64.40
2023-02-17T00:52:02.192Z,66.50
2023-02-17T00:54:48.933Z,65.40
2023-02-17T00:57:35.776Z,68.60
2023-02-17T01:00:22.832Z,66.90
2023-02-17T01:03:11.179Z,63.70
2023-02-17T01:05:57.697Z,64.20
2023-02-17T01:08:44.572Z,64.10
2023-02-17T01:11:33.061Z,63.00
2023-02-17T01:14:19.455Z,62.90
2023-02-17T01:17:06.263Z,64.10
2023-02-17T01:19:53.150Z,63.90
2023-02-17T01:22:40.092Z,62.70
2023-02-17T01:25:26.538Z,64.50
2023-02-17T01:28:21.146Z,65.80
2023-02-17T01:31:09.554Z,64.40
2023-02-17T01:33:58.254Z,63.90
2023-02-17T01:36:44.560Z,64.00
2023-02-17T01:39:31.271Z,64.30
2023-02-17T01:42:22.300Z,65.40
2023-02-17T01:45:17.932Z,66.70
2023-02-17T01:48:16.808Z,63.00
2023-02-17T01:51:21.549Z,62.90
2023-02-17T01:54:16.695Z,61.90
2023-02-17T01:57:03.738Z,63.90
2023-02-17T01:59:51.206Z,63.10
2023-02-17T02:02:40.340Z,64.70
2023-02-17T02:05:26.814Z,63.20
2023-02-17T02:08:15.337Z,63.50
2023-02-17T02:11:01.606Z,65.80
2023-02-17T02:13:50.647Z,64.20
2023-02-17T02:16:49.693Z,65.30
2023-02-17T02:19:48.338Z,62.00
2023-02-17T02:22:59.115Z,66.30
2023-02-17T02:26:04.940Z,64.80
2023-02-17T02:29:20.589Z,65.80
2023-02-17T02:32:38.721Z,63.80
2023-02-17T02:35:51.952Z,62.50
2023-02-17T02:38:47.127Z,62.50
2023-02-17T02:41:38.132Z,64.70
2023-02-17T02:44:25.140Z,62.20
2023-02-17T02:47:39.779Z,65.30
2023-02-17T02:51:00.980Z,61.50
2023-02-17T02:54:36.046Z,62.70
2023-02-17T02:57:30.394Z,63.10
2023-02-17T03:00:35.877Z,66.40
2023-02-17T03:03:44.396Z,64.80
2023-02-17T03:06:39.876Z,64.70
2023-02-17T03:09:27.677Z,63.70
2023-02-17T03:12:15.155Z,61.90
2023-02-17T03:15:08.521Z,64.80
2023-02-17T03:17:59.874Z,65.30
2023-02-17T03:20:54.566Z,65.50
2023-02-17T03:23:40.891Z,62.30
2023-02-17T03:26:27.715Z,67.60
2023-02-17T03:29:14.575Z,64.70
2023-02-17T03:32:01.579Z,64.80
2023-02-17T03:34:48.046Z,65.30
2023-02-17T03:37:34.896Z,63.70
2023-02-17T03:40:21.559Z,64.10
2023-02-17T03:43:09.277Z,65.40
2023-02-17T03:45:56.104Z,63.50
2023-02-17T03:48:43.524Z,63.20
2023-02-17T03:51:30.162Z,66.30
2023-02-17T03:54:16.995Z,64.10
2023-02-17T03:57:03.815Z,64.90
2023-02-17T03:59:50.335Z,65.60
2023-02-17T04:02:36.966Z,66.30
2023-02-17T04:05:24.568Z,68.60
2023-02-17T04:08:12.056Z,70.30
2023-02-17T04:11:01.362Z,70.50
2023-02-17T04:13:47.898Z,69.10
2023-02-17T04:16:34.716Z,72.80
2023-02-17T04:19:21.430Z,72.70
2023-02-17T04:22:09.030Z,70.40
2023-02-17T04:24:55.872Z,69.90
2023-02-17T04:27:42.738Z,70.10
2023-02-17T04:30:29.521Z,75.80
2023-02-17T04:33:17.540Z,69.60
2023-02-17T04:36:05.508Z,74.30
2023-02-17T04:38:52.305Z,74.70
2023-02-17T04:41:38.843Z,72.40
2023-02-17T04:44:25.818Z,76.40
2023-02-17T04:47:12.773Z,73.70
2023-02-17T04:49:59.482Z,71.80
2023-02-17T04:52:46.001Z,71.10
2023-02-17T04:55:33.514Z,75.50
2023-02-17T04:58:21.267Z,70.00
2023-02-17T05:01:07.898Z,76.70
2023-02-17T05:03:54.479Z,75.50
2023-02-17T05:06:41.250Z,73.60
2023-02-17T05:09:27.790Z,75.70
2023-02-17T05:12:14.603Z,77.30
2023-02-17T05:15:01.609Z,78.30
2023-02-17T05:17:48.508Z,73.70
2023-02-17T05:20:35.060Z,79.00
2023-02-17T05:23:21.980Z,78.10
2023-02-17T05:26:09.846Z,79.50
2023-02-17T05:28:57.743Z,82.80
2023-02-17T05:31:44.814Z,85.50
2023-02-17T05:34:32.109Z,80.80
2023-02-17T05:37:18.730Z,85.70
2023-02-17T05:40:06.414Z,83.10
2023-02-17T05:42:53.058Z,80.90
2023-02-17T05:45:39.793Z,80.90
2023-02-17T05:48:26.330Z,78.20
2023-02-17T05:51:17.225Z,75.60
2023-02-17T05:54:04.117Z,74.50
2023-02-17T05:56:50.559Z,78.00
2023-02-17T05:59:37.244Z,76.60
2023-02-17T06:02:23.976Z,79.20
2023-02-17T06:05:11.257Z,76.60
2023-02-17T06:07:58.089Z,79.90
2023-02-17T06:10:44.760Z,78.70
2023-02-17T06:13:31.336Z,75.80
2023-02-17T06:16:17.965Z,75.30
2023-02-17T06:19:06.566Z,73.40
2023-02-17T06:21:53.053Z,72.90
2023-02-17T06:24:39.866Z,72.90
2023-02-17T06:27:26.576Z,71.00
2023-02-17T06:30:15.119Z,70.40
2023-02-17T06:33:03.005Z,72.70
2023-02-17T06:35:51.646Z,69.80
2023-02-17T06:38:38.324Z,68.60
2023-02-17T06:41:25.079Z,69.80
2023-02-17T06:44:11.845Z,74.70
2023-02-17T06:46:59.426Z,72.90
2023-02-17T06:49:46.107Z,67.10
2023-02-17T06:52:32.649Z,67.60
2023-02-17T06:55:19.832Z,67.40
2023-02-17T06:58:07.544Z,65.20
2023-02-17T07:00:54.159Z,61.80
2023-02-17T07:03:40.755Z,59.90
2023-02-17T07:06:28.904Z,62.90
2023-02-17T07:09:15.331Z,61.00
2023-02-17T07:12:02.774Z,62.70
2023-02-17T07:14:49.414Z,62.40
2023-02-17T07:17:35.995Z,62.50
2023-02-17T07:20:22.729Z,62.10
2023-02-17T07:23:09.437Z,58.30
2023-02-17T07:25:56.374Z,59.80
2023-02-17T07:28:43.195Z,58.10
2023-02-17T07:31:30.251Z,62.40
2023-02-17T07:34:16.754Z,60.00
2023-02-17T07:37:03.492Z,58.80
2023-02-17T07:39:50.265Z,58.10
2023-02-17T07:42:36.950Z,63.40
2023-02-17T07:45:23.600Z,59.60
2023-02-17T07:48:10.452Z,64.10
2023-02-17T07:50:57.440Z,57.70
2023-02-17T07:53:43.838Z,56.50
2023-02-17T07:56:30.552Z,56.10
2023-02-17T07:59:16.889Z,54.40
2023-02-17T08:02:06.570Z,55.60
2023-02-17T08:04:53.322Z,53.20
2023-02-17T08:07:40.183Z,60.70
2023-02-17T08:10:46.690Z,55.80
2023-02-17T08:13:35.939Z,57.10
2023-02-17T08:16:22.252Z,52.40
2023-02-17T08:19:09.507Z,54.60
2023-02-17T08:21:56.096Z,56.60
2023-02-17T08:24:42.618Z,53.50
2023-02-17T08:27:29.228Z,51.90
2023-02-17T08:30:16.133Z,50.70
2023-02-17T08:33:02.532Z,50.60
2023-02-17T08:35:49.511Z,52.90
2023-02-17T08:38:36.173Z,49.90
2023-02-17T08:41:29.034Z,51.80
2023-02-17T08:44:18.825Z,48.20
2023-02-17T08:47:06.812Z,49.50
2023-02-17T08:49:53.799Z,49.40
2023-02-17T08:52:40.208Z,50.30
2023-02-17T08:55:35.565Z,48.00
2023-02-17T08:58:30.595Z,48.80
2023-02-17T09:01:19.225Z,49.70
2023-02-17T09:04:08.450Z,48.50
2023-02-17T09:06:56.786Z,49.70
2023-02-17T09:09:43.926Z,47.00
2023-02-17T09:12:30.914Z,48.50
2023-02-17T09:15:17.298Z,47.90
2023-02-17T09:18:04.008Z,46.40
2023-02-17T09:20:51.394Z,46.80
2023-02-17T09:23:38.497Z,46.40
2023-02-17T09:26:24.924Z,50.80
2023-02-17T09:29:11.854Z,49.70
2023-02-17T09:31:58.369Z,47.40
2023-02-17T09:34:51.514Z,48.20
2023-02-17T09:37:38.166Z,46.30
2023-02-17T09:40:33.064Z,47.00
2023-02-17T09:43:28.908Z,46.90
2023-02-17T09:46:24.131Z,49.20
2023-02-17T09:49:24.691Z,48.60
2023-02-17T09:52:21.215Z,48.00
2023-02-17T09:55:18.340Z,46.40
2023-02-17T09:58:20.172Z,49.30
2023-02-17T10:01:12.422Z,48.00
2023-02-17T10:04:07.397Z,50.60
2023-02-17T10:07:02.403Z,47.60
2023-02-17T10:09:58.437Z,48.80
2023-02-17T10:12:50.607Z,51.00
2023-02-17T10:16:10.179Z,50.00
2023-02-17T10:19:14.537Z,53.20
2023-02-17T10:22:14.946Z,49.50
2023-02-17T10:25:04.935Z,52.80
2023-02-17T10:28:17.430Z,50.20
2023-02-17T10:31:10.825Z,51.70
2023-02-17T10:34:20.338Z,50.80
2023-02-17T10:37:22.072Z,54.50
2023-02-17T10:40:15.534Z,52.80
2023-02-17T10:43:07.745Z,53.60
2023-02-17T10:45:57.711Z,50.80
2023-02-17T10:48:53.248Z,50.50
2023-02-17T10:51:39.515Z,49.50
2023-02-17T10:54:36.086Z,48.90
2023-02-17T10:57:26.731Z,48.20
2023-02-17T11:00:18.694Z,48.70
2023-02-17T11:03:05.383Z,51.30
2023-02-17T11:06:06.469Z,51.10
2023-02-17T11:08:58.812Z,52.30
2023-02-17T11:12:02.629Z,53.20
2023-02-17T11:14:54.285Z,49.00
2023-02-17T11:17:41.413Z,52.70
2023-02-17T11:20:33.195Z,50.50
2023-02-17T11:23:24.671Z,52.50
2023-02-17T11:26:18.508Z,53.00
2023-02-17T11:29:16.795Z,52.80
2023-02-17T11:32:11.117Z,52.50
2023-02-17T11:34:59.089Z,55.80
2023-02-17T11:37:45.374Z,55.80
2023-02-17T11:40:33.269Z,56.30
2023-02-17T11:43:20.856Z,61.70
2023-02-17T11:46:10.340Z,54.30
2023-02-17T11:49:06.318Z,57.20
2023-02-17T11:52:04.700Z,55.10
2023-02-17T11:55:39.023Z,56.10
2023-02-17T11:58:59.037Z,56.30
2023-02-17T12:02:02.122Z,55.10
2023-02-17T12:05:13.457Z,53.30
2023-02-17T12:08:23.175Z,56.20
2023-02-17T12:11:27.512Z,53.90
2023-02-17T12:14:45.694Z,55.40
2023-02-17T12:18:11.815Z,53.90
2023-02-17T12:21:07.239Z,52.70
2023-02-17T12:24:02.664Z,53.10
2023-02-17T12:27:12.300Z,50.90
2023-02-17T12:30:11.017Z,49.90
2023-02-17T12:33:31.238Z,49.80
2023-02-17T12:36:19.807Z,49.20
2023-02-17T12:39:35.251Z,49.80
2023-02-17T12:42:37.310Z,47.60
2023-02-17T12:45:36.868Z,50.40
2023-02-17T12:48:50.067Z,47.10
2023-02-17T12:51:51.207Z,50.60
2023-02-17T12:54:47.025Z,48.60
2023-02-17T12:57:55.963Z,45.70
2023-02-17T13:00:46.490Z,45.40
2023-02-17T13:03:34.960Z,44.60
2023-02-17T13:06:32.833Z,45.20
2023-02-17T13:09:31.670Z,46.30
2023-02-17T13:12:33.300Z,42.60
2023-02-17T13:15:34.693Z,46.10
2023-02-17T13:18:24.133Z,42.20
2023-02-17T13:21:27.517Z,44.90
2023-02-17T13:24:30.641Z,40.00
2023-02-17T13:27:34.090Z,41.10
2023-02-17T13:30:26.763Z,37.90
2023-02-17T13:33:22.888Z,82.30
2023-02-17T13:36:16.638Z,47.90
2023-02-17T13:39:26.899Z,37.30
2023-02-17T13:42:32.426Z,37.00
2023-02-17T13:45:59.728Z,37.90
2023-02-17T13:48:46.296Z,37.80
2023-02-17T13:51:34.033Z,39.80
2023-02-17T13:54:23.190Z,39.10
2023-02-17T13:57:23.008Z,40.70
2023-02-17T14:00:31.565Z,42.70
2023-02-17T14:03:25.686Z,40.00
2023-02-17T14:06:19.669Z,42.10
2023-02-17T14:09:20.701Z,44.00
2023-02-17T14:12:17.503Z,38.20
2023-02-17T14:15:04.424Z,38.10
2023-02-17T14:17:50.818Z,43.60
2023-02-17T14:20:37.635Z,39.90
2023-02-17T14:23:24.267Z,41.40
2023-02-17T14:26:27.894Z,42.30
2023-02-17T14:29:15.882Z,43.80
2023-02-17T14:32:02.388Z,45.30
2023-02-17T14:34:48.946Z,42.70
2023-02-17T14:37:37.036Z,42.10
2023-02-17T14:40:25.217Z,45.50
2023-02-17T14:43:11.673Z,44.50
2023-02-17T14:45:58.291Z,41.80
2023-02-17T14:48:44.578Z,40.60
2023-02-17T14:51:36.949Z,43.90
2023-02-17T14:54:26.326Z,42.30
2023-02-17T14:57:15.360Z,39.70
2023-02-17T15:00:01.870Z,39.20
2023-02-17T15:02:48.493Z,37.30
2023-02-17T15:05:35.141Z,38.60
2023-02-17T15:08:29.976Z,36.40
2023-02-17T15:11:20.826Z,38.50
2023-02-17T15:14:07.432Z,39.90
2023-02-17T15:16:53.646Z,38.50
2023-02-17T15:19:40.923Z,39.20
2023-02-17T15:22:27.368Z,36.60
2023-02-17T15:25:17.063Z,39.50
2023-02-17T15:28:04.124Z,41.80
2023-02-17T15:30:54.379Z,40.60
2023-02-17T15:33:41.280Z,38.30
2023-02-17T15:36:28.567Z,40.80
2023-02-17T15:39:18.395Z,40.70
2023-02-17T15:42:11.611Z,40.80
2023-02-17T15:44:58.955Z,39.10
2023-02-17T15:47:50.846Z,41.30
2023-02-17T15:50:37.356Z,42.10
2023-02-17T15:53:23.909Z,41.60
2023-02-17T15:56:20.356Z,43.00
2023-02-17T15:59:11.847Z,44.00
2023-02-17T16:02:01.288Z,45.30
2023-02-17T16:04:48.431Z,54.00
2023-02-17T16:07:36.353Z,52.40
2023-02-17T16:10:29.976Z,92.80
2023-02-17T16:13:19.570Z,71.50
2023-02-17T16:16:14.908Z,46.70
2023-02-17T16:19:02.506Z,48.30
2023-02-17T16:21:48.957Z,37.50
2023-02-17T16:24:35.317Z,40.40
2023-02-17T16:27:21.964Z,39.70
2023-02-17T16:30:30.747Z,42.10
2023-02-17T16:33:18.035Z,36.20
2023-02-17T16:36:10.689Z,37.60
2023-02-17T16:38:56.918Z,40.50
2023-02-17T16:41:44.408Z,38.40
2023-02-17T16:44:31.018Z,38.10
2023-02-17T16:47:20.923Z,39.60
2023-02-17T16:50:09.320Z,40.60
2023-02-17T16:52:59.471Z,39.90
2023-02-17T16:55:46.381Z,38.40
2023-02-17T16:58:32.723Z,36.00
2023-02-17T17:01:19.008Z,36.80
2023-02-17T17:04:06.055Z,35.10
2023-02-17T17:06:52.629Z,34.90
2023-02-17T17:09:39.083Z,34.60
2023-02-17T17:12:25.686Z,32.90
2023-02-17T17:15:13.019Z,32.00
2023-02-17T17:18:07.437Z,30.90
2023-02-17T17:20:53.567Z,32.30
2023-02-17T17:23:40.399Z,31.40
2023-02-17T17:26:41.736Z,31.60
2023-02-17T17:29:28.358Z,30.30
2023-02-17T17:32:14.955Z,31.20
2023-02-17T17:35:01.467Z,30.10
2023-02-17T17:37:48.124Z,31.20
2023-02-17T17:40:48.439Z,29.10
2023-02-17T17:43:35.005Z,29.20
2023-02-17T17:46:24.764Z,31.20
2023-02-17T17:49:14.204Z,31.00
2023-02-17T17:52:00.493Z,30.30
2023-02-17T17:54:46.897Z,29.50
2023-02-17T17:57:33.598Z,29.90
2023-02-17T18:00:20.217Z,29.10
2023-02-17T18:03:06.668Z,29.00
2023-02-17T18:05:52.956Z,28.30
2023-02-17T18:08:40.066Z,27.70
2023-02-17T18:11:27.329Z,28.20
2023-02-17T18:14:15.697Z,26.10
2023-02-17T18:17:02.465Z,24.00
2023-02-17T18:19:49.687Z,24.50
2023-02-17T18:22:35.974Z,23.30
2023-02-17T18:25:23.056Z,23.50
2023-02-17T18:28:09.298Z,22.60
2023-02-17T18:30:57.086Z,22.70
2023-02-17T18:33:43.947Z,21.90
2023-02-17T18:36:31.120Z,21.40
2023-02-17T18:39:17.471Z,21.90
2023-02-17T18:42:05.064Z,20.30
2023-02-17T18:44:52.235Z,21.70
2023-02-17T18:47:38.801Z,21.80
2023-02-17T18:50:26.414Z,22.30
2023-02-17T18:53:12.841Z,22.20
2023-02-17T18:56:01.752Z,21.60
2023-02-17T18:58:49.706Z,21.20
2023-02-17T19:01:39.461Z,22.30
2023-02-17T19:04:26.160Z,21.10
2023-02-17T19:07:12.795Z,20.70
2023-02-17T19:09:59.396Z,20.40
2023-02-17T19:12:45.786Z,20.80
2023-02-17T19:15:32.554Z,20.80
2023-02-17T19:18:19.113Z,20.70
2023-02-17T19:21:06.963Z,21.00
2023-02-17T19:23:53.749Z,22.20
2023-02-17T19:26:40.464Z,22.00
2023-02-17T19:29:26.665Z,21.70
2023-02-17T19:32:13.654Z,22.50
2023-02-17T19:34:59.851Z,23.70
2023-02-17T19:37:46.350Z,24.70
2023-02-17T19:40:35.003Z,26.00
2023-02-17T19:43:21.206Z,25.70
2023-02-17T19:46:08.338Z,26.50
2023-02-17T19:48:54.998Z,27.90
2023-02-17T19:51:41.484Z,28.50
2023-02-17T19:54:27.809Z,28.80
2023-02-17T19:57:17.446Z,30.20
2023-02-17T20:00:05.604Z,30.50
2023-02-17T20:02:51.995Z,31.20
2023-02-17T20:05:40.004Z,30.60
2023-02-17T20:08:26.600Z,31.10
2023-02-17T20:11:14.475Z,32.60
2023-02-17T20:14:01.892Z,33.50
2023-02-17T20:16:53.445Z,31.60
2023-02-17T20:19:41.029Z,31.70
2023-02-17T20:22:27.334Z,30.50
2023-02-17T20:25:13.697Z,29.30
2023-02-17T20:27:59.999Z,29.10
2023-02-17T20:30:46.268Z,29.90
2023-02-17T20:33:32.686Z,29.00
2023-02-17T20:36:18.991Z,29.10
2023-02-17T20:39:05.446Z,28.20
2023-02-17T20:41:54.860Z,28.00
2023-02-17T20:44:42.125Z,25.50
2023-02-17T20:47:29.742Z,24.60
2023-02-17T20:50:18.910Z,23.50
2023-02-17T20:53:05.167Z,23.30
2023-02-17T20:55:52.117Z,22.40
2023-02-17T20:58:40.228Z,22.80
2023-02-17T21:01:27.227Z,21.80
2023-02-17T21:04:15.254Z,21.20
2023-02-17T21:07:01.748Z,20.30
2023-02-17T21:09:48.311Z,19.50
2023-02-17T21:12:34.920Z,18.00
2023-02-17T21:15:21.825Z,17.50
2023-02-17T21:18:09.240Z,17.10
2023-02-17T21:20:55.555Z,16.60
2023-02-17T21:23:42.283Z,16.30
2023-02-17T21:26:28.475Z,15.50
2023-02-17T21:29:15.005Z,15.60
2023-02-17T21:32:01.295Z,15.80
2023-02-17T21:34:47.675Z,15.10
2023-02-17T21:37:34.464Z,14.30
2023-02-17T21:40:21.219Z,14.70
2023-02-17T21:43:39.600Z,13.40
2023-02-17T21:46:26.973Z,13.60
2023-02-17T21:49:13.944Z,11.80
2023-02-17T21:52:00.432Z,11.50
2023-02-17T21:54:46.495Z,10.90
2023-02-17T21:57:33.285Z,10.50
2023-02-17T22:00:19.986Z,9.50
2023-02-17T22:03:06.478Z,9.30
2023-02-17T22:05:53.019Z,9.00
2023-02-17T22:08:39.645Z,8.90
2023-02-17T22:11:30.026Z,9.10
2023-02-17T22:14:18.751Z,9.30
2023-02-17T22:17:05.049Z,8.50
2023-02-17T22:19:51.448Z,7.40
2023-02-17T22:22:37.827Z,7.10
2023-02-17T22:25:24.590Z,7.50
2023-02-17T22:28:13.426Z,6.80
2023-02-17T22:31:00.558Z,6.20
2023-02-17T22:33:47.359Z,5.70
2023-02-17T22:36:35.385Z,5.40
2023-02-17T22:39:21.667Z,4.50
2023-02-17T22:42:08.060Z,4.10
2023-02-17T22:44:54.647Z,4.40
2023-02-17T22:47:41.118Z,4.40
2023-02-17T22:50:27.332Z,4.70
2023-02-17T22:53:13.678Z,4.20
2023-02-17T22:55:59.734Z,3.90
2023-02-17T22:58:46.073Z,4.30
2023-02-17T23:01:35.466Z,3.50
2023-02-17T23:04:21.687Z,3.10
2023-02-17T23:07:08.665Z,3.50
2023-02-17T23:09:55.237Z,3.50
2023-02-17T23:12:41.462Z,3.30
2023-02-17T23:15:39.787Z,2.60
2023-02-17T23:18:27.486Z,3.20
2023-02-17T23:21:13.833Z,4.80
2023-02-17T23:24:00.258Z,3.10
2023-02-17T23:26:47.611Z,6.00
2023-02-17T23:29:34.852Z,6.60
2023-02-17T23:32:21.100Z,3.90
2023-02-17T23:35:07.728Z,5.40
2023-02-17T23:37:54.050Z,4.00
2023-02-17T23:40:42.041Z,8.70
2023-02-17T23:43:28.679Z,8.50
2023-02-17T23:46:15.000Z,6.70
2023-02-17T23:49:01.598Z,6.40
2023-02-17T23:51:47.855Z,4.80
2023-02-17T23:54:34.072Z,4.00
2023-02-17T23:57:20.395Z,4.10
